Terminal Aerodrome Forecast
Issued by NWS

Current Version | Previous Version | Graphics & Text | Print | Product List | Glossary On
Versions: 1 2 3 4 5 6 7 8 9 10 11 12 13 14 15 16 17 18 19 20 21 22 23 24 25 26 27 28 29 30 31 32 33 34 35 36 37 38 39 40 41 42
281
FTUS41 KRNK 191726
TAFLWB
TAF
KLWB 191726Z 1918/2018 VRB03KT P6SM SCT250
     FM191900 VRB03KT P6SM SCT050
     FM192300 00000KT P6SM SCT080
     FM200800 00000KT 4SM BR FEW250
     FM201000 00000KT 1SM BR FEW001 SCT250
     FM201400 VRB03KT P6SM FEW250=

USA.gov is the U.S. government's official web portal to all federal, state and local government web resources and services.